Time;durP1;ratioP1;P1;durP2;ratioP2;P2;SDS_P1;SDS_P2;PMS_P1;PMS_P2;Temp;Humidity;BMP_temperature;BMP_pressure;BME280_temperature;BME280_humidity;BME280_pressure;Samples;Min_cycle;Max_cycle;Signal;HPM_P1;HPM_P2
2022/11/01 00:00:44;;;;;;;15.52;6.10;;;;;;;14.39;89.52;100751.50;4992006;28;20069;-74
2022/11/01 00:03:09;;;;;;;16.85;7.47;;;;;;;14.40;89.82;100748.59;4992758;28;20049;-73
2022/11/01 00:05:35;;;;;;;20.45;5.90;;;;;;;14.47;89.74;100735.25;4996899;28;20037;-74
2022/11/01 00:08:00;;;;;;;21.23;6.32;;;;;;;14.46;89.78;100731.66;4992142;28;20049;-73
2022/11/01 00:10:25;;;;;;;13.70;5.90;;;;;;;14.52;89.74;100742.06;4991461;28;20030;-73
2022/11/01 00:12:51;;;;;;;12.00;5.35;;;;;;;14.56;89.44;100736.31;4992674;28;20036;-73
2022/11/01 00:15:16;;;;;;;12.75;6.13;;;;;;;14.62;89.24;100725.66;5006815;28;20062;-74
2022/11/01 00:17:41;;;;;;;10.70;4.85;;;;;;;14.72;88.75;100726.53;4997977;28;20109;-74
2022/11/01 00:20:07;;;;;;;11.65;5.03;;;;;;;14.77;88.68;100731.59;4991598;28;20141;-73
2022/11/01 00:22:33;;;;;;;10.65;5.03;;;;;;;14.86;88.08;100733.50;4991982;28;20062;-73
2022/11/01 00:24:58;;;;;;;13.60;5.53;;;;;;;14.89;88.17;100725.00;4992030;28;20109;-74
2022/11/01 00:27:23;;;;;;;13.20;5.85;;;;;;;14.94;88.03;100722.69;4990639;28;20048;-75
2022/11/01 00:29:49;;;;;;;12.35;5.20;;;;;;;15.00;87.74;100721.25;4974606;28;20141;-74
2022/11/01 00:32:15;;;;;;;9.70;5.57;;;;;;;15.04;87.49;100723.56;4992125;28;20076;-73
2022/11/01 00:34:40;;;;;;;15.68;5.88;;;;;;;15.11;87.29;100718.41;4991718;28;20197;-73
2022/11/01 00:37:05;;;;;;;11.27;5.38;;;;;;;15.12;87.25;100708.31;4991804;28;20049;-73
2022/11/01 00:39:31;;;;;;;8.30;4.90;;;;;;;15.19;87.43;100718.53;4991819;28;20093;-72
2022/11/01 00:41:56;;;;;;;11.15;4.93;;;;;;;15.22;87.14;100720.13;4990560;28;20045;-73
2022/11/01 00:44:21;;;;;;;10.45;5.65;;;;;;;15.22;87.45;100714.66;4992388;28;20038;-73
2022/11/01 00:46:47;;;;;;;9.57;4.80;;;;;;;15.23;87.15;100725.44;4990281;28;20056;-73
2022/11/01 00:49:12;;;;;;;9.85;4.88;;;;;;;15.22;87.32;100722.88;4996880;28;20030;-72
2022/11/01 00:51:37;;;;;;;12.55;4.30;;;;;;;15.25;87.61;100719.84;4991569;28;20086;-73
2022/11/01 00:54:03;;;;;;;10.50;4.65;;;;;;;15.24;87.37;100715.34;4992082;28;20070;-73
2022/11/01 00:56:28;;;;;;;11.43;4.40;;;;;;;15.24;87.31;100718.09;4991854;28;20046;-73
2022/11/01 00:58:54;;;;;;;7.95;4.90;;;;;;;15.22;87.67;100714.66;5001663;28;20116;-73
2022/11/01 01:01:19;;;;;;;10.95;5.00;;;;;;;15.20;87.83;100712.06;4993261;28;20531;-73
2022/11/01 01:03:44;;;;;;;10.55;4.50;;;;;;;15.23;87.58;100699.91;4991963;28;20487;-72
2022/11/01 01:06:10;;;;;;;8.70;4.60;;;;;;;15.21;87.74;100688.25;4991281;28;20391;-73
2022/11/01 01:08:35;;;;;;;10.63;4.50;;;;;;;15.22;87.29;100707.28;4991997;28;20042;-72
2022/11/01 01:11:00;;;;;;;13.50;5.07;;;;;;;15.17;87.86;100700.50;4991715;28;20038;-73
2022/11/01 01:13:26;;;;;;;8.70;4.72;;;;;;;15.16;87.89;100710.59;4991739;28;20100;-72
2022/11/01 01:15:51;;;;;;;10.73;4.50;;;;;;;15.21;88.24;100694.59;4990426;28;20375;-73
2022/11/01 01:18:16;;;;;;;10.40;4.68;;;;;;;15.24;88.09;100694.28;5005226;28;20041;-73
2022/11/01 01:20:42;;;;;;;14.50;4.47;;;;;;;15.24;88.50;100694.28;4992205;28;20045;-74
2022/11/01 01:23:08;;;;;;;12.52;5.47;;;;;;;15.18;88.51;100696.75;4989969;28;20492;-73
2022/11/01 01:25:33;;;;;;;10.32;5.10;;;;;;;15.17;89.18;100693.16;4989772;28;20068;-73
2022/11/01 01:27:59;;;;;;;14.43;5.22;;;;;;;15.26;88.70;100710.59;5003740;28;20045;-73
2022/11/01 01:30:24;;;;;;;6.80;4.22;;;;;;;15.26;88.76;100702.38;5009310;28;20489;-74
2022/11/01 01:32:50;;;;;;;10.05;4.35;;;;;;;15.28;89.12;100698.47;4997314;28;20505;-73
2022/11/01 01:35:15;;;;;;;12.25;4.82;;;;;;;15.34;88.85;100701.63;4997372;28;20054;-73
2022/11/01 01:37:41;;;;;;;10.18;5.10;;;;;;;15.32;88.56;100699.91;4990835;28;20045;-73
2022/11/01 01:40:07;;;;;;;9.15;5.05;;;;;;;15.35;88.94;100700.66;4993110;28;20431;-73
2022/11/01 01:42:40;;;;;;;11.65;5.40;;;;;;;15.36;88.78;100705.97;5009382;28;20128;-73
2022/11/01 01:45:24;;;;;;;10.98;4.78;;;;;;;15.39;88.69;100702.06;5000512;28;20541;-72
2022/11/01 01:47:52;;;;;;;11.50;5.28;;;;;;;15.43;88.91;100690.66;4992846;28;20034;-72
2022/11/01 01:50:32;;;;;;;13.15;4.70;;;;;;;15.45;88.73;100698.75;4990914;28;20022;-73
2022/11/01 01:53:02;;;;;;;9.32;4.75;;;;;;;15.45;89.03;100694.13;4990707;28;20339;-73
2022/11/01 01:55:35;;;;;;;10.73;4.97;;;;;;;15.47;88.63;100681.13;4990512;28;20034;-74
2022/11/01 01:58:00;;;;;;;9.73;4.82;;;;;;;15.51;89.43;100682.56;4988779;28;20410;-73
2022/11/01 02:00:26;;;;;;;12.55;5.65;;;;;;;15.54;89.09;100684.16;4990735;28;20072;-73
2022/11/01 02:02:52;;;;;;;9.07;5.00;;;;;;;15.54;88.58;100685.03;4990636;28;20030;-73
2022/11/01 02:05:32;;;;;;;10.88;4.63;;;;;;;15.61;89.07;100679.81;5003064;28;20029;-73
2022/11/01 02:07:59;;;;;;;16.60;5.43;;;;;;;15.69;88.09;100693.69;4999407;28;20111;-73
2022/11/01 02:10:26;;;;;;;10.18;4.30;;;;;;;15.68;88.23;100683.75;4989683;28;20394;-73
2022/11/01 02:12:51;;;;;;;10.45;4.85;;;;;;;15.67;88.19;100684.75;4990588;28;20512;-73
2022/11/01 02:15:22;;;;;;;10.90;5.05;;;;;;;15.71;87.59;100697.13;4990175;28;20098;-73
2022/11/01 02:17:56;;;;;;;9.88;4.40;;;;;;;15.66;88.45;100691.22;4990623;28;20422;-72
2022/11/01 02:20:42;;;;;;;14.50;6.38;;;;;;;15.67;88.44;100693.00;4999186;28;20118;-72
2022/11/01 02:23:30;;;;;;;9.13;4.50;;;;;;;15.69;88.58;100696.44;4988928;28;20038;-74
2022/11/01 02:26:24;;;;;;;12.13;4.28;;;;;;;15.73;88.39;100694.25;5006919;28;20061;-74
2022/11/01 02:29:17;;;;;;;9.35;5.00;;;;;;;15.75;88.10;100703.19;5009263;28;20053;-73
2022/11/01 02:32:06;;;;;;;12.05;4.55;;;;;;;15.72;87.88;100684.31;5004132;28;20040;-73
2022/11/01 02:34:45;;;;;;;8.20;4.65;;;;;;;15.64;88.03;100685.03;4989757;28;20109;-72
2022/11/01 02:37:25;;;;;;;9.85;4.45;;;;;;;15.61;88.18;100690.78;5009833;28;20076;-73
2022/11/01 02:39:55;;;;;;;12.00;4.32;;;;;;;15.59;88.21;100692.81;5010072;28;20045;-73
2022/11/01 02:42:27;;;;;;;9.48;4.88;;;;;;;15.57;87.88;100692.09;5010032;28;20053;-73
2022/11/01 02:44:59;;;;;;;9.23;4.68;;;;;;;15.61;88.02;100700.88;4993207;28;20035;-73
2022/11/01 02:47:28;;;;;;;10.75;4.78;;;;;;;15.56;87.80;100707.69;4989637;28;20351;-73
2022/11/01 02:50:00;;;;;;;8.90;4.10;;;;;;;15.55;87.88;100713.31;4997622;28;20465;-73
2022/11/01 02:52:30;;;;;;;9.93;3.90;;;;;;;15.50;87.96;100713.75;4988767;28;20395;-72
2022/11/01 02:55:03;;;;;;;8.57;4.00;;;;;;;15.45;88.37;100715.22;4989968;28;20038;-72
2022/11/01 02:57:38;;;;;;;11.73;4.75;;;;;;;15.44;88.50;100719.84;4988813;28;20065;-72
2022/11/01 03:00:19;;;;;;;10.25;4.90;;;;;;;15.42;88.64;100710.88;4989631;28;20100;-72
2022/11/01 03:02:44;;;;;;;13.98;4.53;;;;;;;15.44;88.15;100716.22;4998254;28;20042;-72
2022/11/01 03:05:25;;;;;;;11.30;4.70;;;;;;;15.42;88.35;100724.56;4997414;28;20041;-72
2022/11/01 03:07:55;;;;;;;8.35;3.78;;;;;;;15.40;88.82;100723.00;4989841;28;20053;-73
2022/11/01 03:10:25;;;;;;;12.55;4.28;;;;;;;15.38;88.85;100728.63;4989690;28;20358;-72
2022/11/01 03:13:04;;;;;;;11.90;4.25;;;;;;;15.34;89.14;100729.94;4988816;28;20502;-72
2022/11/01 03:15:38;;;;;;;9.88;4.30;;;;;;;15.30;89.18;100739.47;4988406;28;20129;-72
2022/11/01 03:18:10;;;;;;;11.20;4.30;;;;;;;15.25;89.36;100736.28;5003471;28;20115;-72
2022/11/01 03:20:50;;;;;;;11.63;4.72;;;;;;;15.21;89.43;100749.41;4992083;28;20450;-72
2022/11/01 03:23:40;;;;;;;9.20;4.07;;;;;;;15.16;88.04;100751.72;4988109;28;20125;-72
2022/11/01 03:26:10;;;;;;;6.90;4.40;;;;;;;15.15;87.61;100758.19;4989544;28;20072;-72
2022/11/01 03:28:41;;;;;;;10.55;3.95;;;;;;;15.13;86.46;100749.25;4989261;28;20042;-72
2022/11/01 03:31:35;;;;;;;7.40;3.30;;;;;;;15.16;86.24;100761.81;4993626;28;20124;-73
2022/11/01 03:34:04;;;;;;;8.23;2.88;;;;;;;15.12;84.44;100776.81;4990619;28;20057;-72
2022/11/01 03:36:37;;;;;;;5.88;2.60;;;;;;;15.11;82.92;100775.94;4992662;28;20038;-71
2022/11/01 03:39:14;;;;;;;9.48;2.65;;;;;;;15.04;83.49;100780.25;4989068;28;20066;-72
2022/11/01 03:41:44;;;;;;;7.22;2.67;;;;;;;15.01;81.54;100784.16;4989321;28;20038;-72
2022/11/01 03:44:12;;;;;;;5.18;2.03;;;;;;;14.95;80.61;100787.44;4991162;28;20042;-72
2022/11/01 03:46:38;;;;;;;5.07;2.00;;;;;;;14.90;80.36;100792.47;4993002;28;20026;-71
2022/11/01 03:49:03;;;;;;;5.03;1.92;;;;;;;14.86;78.08;100780.06;4994911;28;20164;-73
2022/11/01 03:51:29;;;;;;;4.22;1.50;;;;;;;14.84;77.24;100795.78;4996524;28;20117;-72
2022/11/01 03:53:54;;;;;;;3.33;1.48;;;;;;;14.77;77.15;100797.34;4992896;28;20489;-73
2022/11/01 03:56:20;;;;;;;2.95;1.63;;;;;;;14.71;76.37;100820.66;4993237;28;20048;-72
2022/11/01 03:58:45;;;;;;;2.05;1.58;;;;;;;14.67;75.71;100813.72;4992440;28;20034;-72
2022/11/01 04:01:13;;;;;;;5.97;1.50;;;;;;;14.61;75.53;100822.50;4996281;28;20489;-71
2022/11/01 04:03:39;;;;;;;4.43;1.20;;;;;;;14.52;74.86;100829.66;4993510;28;20030;-73
2022/11/01 04:06:05;;;;;;;9.25;2.03;;;;;;;14.45;74.10;100827.56;4993565;28;20434;-72
2022/11/01 04:08:31;;;;;;;1.88;1.00;;;;;;;14.37;73.88;100857.53;4992340;28;20038;-72
2022/11/01 04:10:57;;;;;;;3.42;1.30;;;;;;;14.26;73.27;100848.34;4991289;28;20034;-72
2022/11/01 04:13:22;;;;;;;4.45;1.23;;;;;;;14.19;74.66;100858.13;4992435;28;20331;-72
2022/11/01 04:21:19;;;;;;;2.08;0.93;;;;;;;13.96;73.23;100862.00;4992536;28;20478;-72
2022/11/01 04:23:45;;;;;;;5.88;1.27;;;;;;;13.94;73.89;100881.28;4990656;28;20248;-72
2022/11/01 04:26:13;;;;;;;4.40;1.48;;;;;;;13.88;74.24;100892.72;4990668;28;20063;-72
2022/11/01 04:28:38;;;;;;;2.53;0.80;;;;;;;13.81;74.83;100893.41;4991962;28;20117;-71
2022/11/01 04:31:04;;;;;;;2.95;0.90;;;;;;;13.73;74.55;100894.03;4991970;28;20081;-73
2022/11/01 04:33:30;;;;;;;1.23;0.90;;;;;;;13.72;74.37;100908.72;5006526;28;20046;-72
2022/11/01 04:35:56;;;;;;;1.83;1.10;;;;;;;13.68;74.17;100907.25;4992491;28;20108;-72
2022/11/01 04:38:21;;;;;;;2.72;1.00;;;;;;;13.61;74.42;100920.53;4991982;28;20041;-71
2022/11/01 04:40:46;;;;;;;1.95;0.88;;;;;;;13.54;74.88;100924.81;4992106;28;20069;-72
2022/11/01 04:43:12;;;;;;;3.10;1.17;;;;;;;13.52;74.39;100919.47;4992861;28;20032;-71
2022/11/01 04:45:38;;;;;;;4.70;1.20;;;;;;;13.49;74.04;100935.25;5009874;28;20046;-72
2022/11/01 04:48:06;;;;;;;3.13;0.88;;;;;;;13.50;74.43;100934.25;4996142;28;20517;-71
2022/11/01 04:50:33;;;;;;;2.05;1.08;;;;;;;13.41;74.91;100935.03;4991082;28;20045;-72
2022/11/01 04:52:59;;;;;;;2.28;1.00;;;;;;;13.33;74.90;100945.72;4990410;28;20026;-72
2022/11/01 04:55:27;;;;;;;4.78;0.95;;;;;;;13.27;75.52;100956.16;4990521;28;20050;-73
2022/11/01 04:57:53;;;;;;;5.38;1.00;;;;;;;13.22;75.27;100965.72;4991614;28;20501;-71
2022/11/01 05:00:19;;;;;;;3.50;1.00;;;;;;;13.18;75.61;100977.84;4991543;28;20095;-72
2022/11/01 05:02:44;;;;;;;1.73;0.80;;;;;;;13.12;76.05;100981.09;5008155;28;20033;-72
2022/11/01 05:05:10;;;;;;;8.13;1.25;;;;;;;13.11;75.24;100987.56;4998978;28;20034;-72
2022/11/01 05:07:36;;;;;;;1.58;0.90;;;;;;;13.11;74.26;100990.28;4992729;28;20557;-73
2022/11/01 05:10:01;;;;;;;3.53;1.20;;;;;;;13.11;73.67;100998.47;5009704;28;20034;-73
2022/11/01 05:12:27;;;;;;;5.00;1.00;;;;;;;13.11;72.96;101009.41;5009541;28;20030;-72
2022/11/01 05:14:52;;;;;;;3.35;0.90;;;;;;;13.10;72.88;101019.44;5011218;28;20037;-72
2022/11/01 05:17:18;;;;;;;3.00;1.00;;;;;;;13.09;72.78;101005.91;5000842;28;20113;-70
2022/11/01 05:19:43;;;;;;;1.65;0.82;;;;;;;13.00;73.81;100993.88;4992090;28;20154;-71
2022/11/01 05:22:09;;;;;;;6.75;0.98;;;;;;;12.96;73.24;101004.19;5010858;28;20481;-72
2022/11/01 05:24:34;;;;;;;3.22;1.92;;;;;;;12.89;73.06;101012.97;5010106;28;20041;-72
2022/11/01 05:27:00;;;;;;;3.97;1.23;;;;;;;12.84;72.89;101021.53;5005569;28;20109;-71
2022/11/01 05:29:26;;;;;;;6.28;1.00;;;;;;;12.79;73.51;101021.03;4989634;28;20482;-72
2022/11/01 05:31:52;;;;;;;5.13;1.05;;;;;;;12.76;73.09;101018.53;4990849;28;20074;-72
2022/11/01 05:34:17;;;;;;;3.80;1.00;;;;;;;12.70;73.42;101019.03;4989034;28;20057;-72
2022/11/01 05:36:43;;;;;;;3.85;0.90;;;;;;;12.66;73.66;101012.06;5002820;28;20512;-72
2022/11/01 05:39:08;;;;;;;6.68;0.95;;;;;;;12.61;74.01;101019.75;4989185;28;20038;-71
2022/11/01 05:41:34;;;;;;;3.95;1.55;;;;;;;12.58;74.29;101023.56;4990668;28;20105;-71
2022/11/01 05:43:59;;;;;;;1.25;1.00;;;;;;;12.55;74.97;101040.22;4989103;28;20117;-71
2022/11/01 05:46:26;;;;;;;1.65;1.00;;;;;;;12.52;74.71;101038.56;4990598;28;20064;-71
2022/11/01 05:48:51;;;;;;;2.80;0.73;;;;;;;12.47;75.52;101035.34;5007282;28;20033;-72
2022/11/01 05:51:16;;;;;;;1.60;0.80;;;;;;;12.42;76.15;101036.69;4990059;28;20370;-70
2022/11/01 05:53:42;;;;;;;2.72;1.73;;;;;;;12.41;75.88;101045.88;4989145;28;20467;-70
2022/11/01 05:56:07;;;;;;;6.38;1.02;;;;;;;12.38;76.01;101046.09;4993064;28;20053;-71
2022/11/01 05:58:33;;;;;;;3.30;0.90;;;;;;;12.34;76.18;101059.09;4999456;28;20027;-71
2022/11/01 06:01:00;;;;;;;1.95;1.00;;;;;;;12.31;75.16;101062.06;5000105;28;20030;-71
2022/11/01 06:03:26;;;;;;;4.45;0.90;;;;;;;12.34;74.03;101063.69;4995431;28;20029;-72
2022/11/01 06:05:51;;;;;;;8.55;1.52;;;;;;;12.33;72.62;101051.91;4991071;28;20085;-70
2022/11/01 06:08:17;;;;;;;5.13;1.73;;;;;;;12.30;72.34;101060.31;4990659;28;20022;-70
2022/11/01 06:10:43;;;;;;;5.22;1.17;;;;;;;12.26;72.46;101066.97;4989974;28;20065;-70
2022/11/01 06:13:09;;;;;;;5.47;1.45;;;;;;;12.21;71.63;101069.19;4988795;28;20435;-70
2022/11/01 06:15:34;;;;;;;8.32;1.40;;;;;;;12.17;72.52;101084.03;4990063;28;20097;-71
2022/11/01 06:17:59;;;;;;;9.32;1.60;;;;;;;12.13;72.31;101086.16;5000354;28;20121;-72
2022/11/01 06:20:30;;;;;;;6.00;1.27;;;;;;;12.08;73.27;101084.75;4993599;28;20092;-72
2022/11/01 06:22:56;;;;;;;5.20;1.20;;;;;;;12.02;73.11;101093.38;4989985;28;20112;-71
2022/11/01 06:25:22;;;;;;;5.88;1.13;;;;;;;11.99;73.51;101105.41;4990070;28;20540;-70
2022/11/01 06:27:47;;;;;;;4.75;0.93;;;;;;;11.95;73.09;101091.13;4989685;28;20038;-71
2022/11/01 06:30:13;;;;;;;4.32;1.08;;;;;;;11.98;73.50;101104.53;4988382;28;20062;-72
2022/11/01 06:32:39;;;;;;;4.72;1.42;;;;;;;11.95;74.20;101101.16;4989582;28;20077;-72
2022/11/01 06:35:04;;;;;;;6.22;1.35;;;;;;;11.96;74.38;101111.94;4989282;28;20073;-69
2022/11/01 06:37:30;;;;;;;5.20;1.35;;;;;;;11.93;75.36;101120.34;4974667;28;20046;-72
2022/11/01 06:39:55;;;;;;;8.88;1.17;;;;;;;11.91;75.43;101114.13;4988269;28;20038;-71
2022/11/01 06:42:20;;;;;;;5.00;1.00;;;;;;;11.89;75.57;101121.56;4991903;28;20034;-72
2022/11/01 06:44:46;;;;;;;5.65;1.38;;;;;;;11.85;75.79;101124.63;4992533;28;20034;-72
2022/11/01 06:47:11;;;;;;;5.00;1.05;;;;;;;11.84;76.12;101137.38;4994569;28;20045;-72
2022/11/01 06:49:37;;;;;;;6.38;1.30;;;;;;;11.80;76.41;101140.41;4988137;28;20038;-72
2022/11/01 06:52:03;;;;;;;5.63;1.00;;;;;;;11.78;76.90;101145.09;5007197;28;20504;-72
2022/11/01 06:54:30;;;;;;;6.07;1.67;;;;;;;11.74;77.03;101139.00;5008850;28;20069;-71
2022/11/01 06:56:55;;;;;;;3.45;1.70;;;;;;;11.71;76.92;101142.84;5003670;28;20018;-72
2022/11/01 06:59:21;;;;;;;5.60;1.30;;;;;;;11.69;77.38;101136.59;4989401;28;20038;-72
2022/11/01 07:01:46;;;;;;;5.60;1.30;;;;;;;11.69;76.85;101139.31;4990595;28;20072;-72
2022/11/01 07:04:11;;;;;;;8.93;1.90;;;;;;;11.73;76.69;101146.31;5003591;28;20026;-72
2022/11/01 07:06:37;;;;;;;5.75;1.20;;;;;;;11.70;77.18;101153.81;4989073;28;20035;-72
2022/11/01 07:09:03;;;;;;;6.97;1.58;;;;;;;11.69;76.75;101155.69;4994884;28;20103;-72
2022/11/01 07:11:28;;;;;;;8.52;1.58;;;;;;;11.71;76.50;101161.03;4989227;28;20479;-72
2022/11/01 07:13:54;;;;;;;8.48;1.35;;;;;;;11.74;76.55;101175.28;4989267;28;20035;-72
2022/11/01 07:16:19;;;;;;;7.60;1.30;;;;;;;11.77;76.39;101173.34;5004417;28;20042;-72
2022/11/01 07:18:45;;;;;;;6.35;1.50;;;;;;;11.77;76.53;101184.25;4991962;28;20541;-72
2022/11/01 07:21:28;;;;;;;13.63;1.45;;;;;;;11.77;76.17;101187.84;4997866;28;20041;-72
2022/11/01 07:23:54;;;;;;;7.13;1.10;;;;;;;11.79;76.47;101198.63;5008134;28;20041;-73
2022/11/01 07:26:20;;;;;;;16.27;1.58;;;;;;;11.82;76.55;101206.59;4987542;28;20044;-72
2022/11/01 07:28:45;;;;;;;5.68;1.48;;;;;;;11.83;76.44;101222.00;4993466;28;20095;-72
2022/11/01 07:31:10;;;;;;;7.40;1.08;;;;;;;11.84;76.49;101210.97;4993104;28;20049;-71
2022/11/01 07:33:36;;;;;;;7.82;1.65;;;;;;;11.83;76.67;101222.88;5008787;28;20125;-72
2022/11/01 07:36:01;;;;;;;10.05;1.42;;;;;;;11.81;76.33;101219.34;4993525;28;20439;-71
2022/11/01 07:38:27;;;;;;;4.03;1.00;;;;;;;11.80;76.75;101223.06;4991297;28;20509;-72
2022/11/01 07:40:53;;;;;;;11.48;2.10;;;;;;;11.80;76.20;101220.34;4992911;28;20104;-72
2022/11/01 07:43:19;;;;;;;10.77;1.65;;;;;;;11.81;75.75;101224.81;4992754;28;20050;-72
2022/11/01 07:45:45;;;;;;;8.35;1.52;;;;;;;11.86;75.64;101240.88;4992433;28;20034;-71
2022/11/01 07:48:12;;;;;;;13.27;1.83;;;;;;;11.86;75.39;101233.56;4992719;28;20038;-72
2022/11/01 07:50:39;;;;;;;7.47;1.58;;;;;;;11.88;75.27;101226.13;4992305;28;20117;-72
2022/11/01 07:53:17;;;;;;;10.68;1.70;;;;;;;11.91;75.23;101238.69;4992781;28;20125;-72
2022/11/01 07:55:43;;;;;;;7.50;1.20;;;;;;;11.93;74.72;101240.31;4993221;28;20042;-72
2022/11/01 07:58:10;;;;;;;7.22;1.35;;;;;;;11.94;74.88;101242.06;5011833;28;20064;-72
2022/11/01 08:00:36;;;;;;;11.70;1.90;;;;;;;11.95;75.00;101264.75;5011772;28;20041;-71
2022/11/01 08:03:11;;;;;;;7.32;1.90;;;;;;;11.96;74.55;101256.44;4998283;28;20402;-71
2022/11/01 08:05:37;;;;;;;13.98;2.40;;;;;;;12.00;74.50;101262.56;4999021;28;20042;-71
2022/11/01 08:08:04;;;;;;;8.52;1.60;;;;;;;12.02;74.29;101270.63;5007706;28;20034;-72
2022/11/01 08:10:30;;;;;;;10.93;1.67;;;;;;;12.02;74.40;101260.59;4974978;28;20069;-72
2022/11/01 08:13:17;;;;;;;6.25;1.35;;;;;;;12.03;74.39;101276.00;4992454;28;20034;-71
2022/11/01 08:15:44;;;;;;;7.60;1.55;;;;;;;12.02;73.86;101271.50;4996153;28;20596;-73
2022/11/01 08:18:09;;;;;;;17.75;2.30;;;;;;;12.07;74.27;101282.06;5000436;28;20034;-72
2022/11/01 08:20:35;;;;;;;9.02;1.55;;;;;;;12.07;73.84;101272.03;4991847;28;20030;-71
2022/11/01 08:23:00;;;;;;;5.00;1.52;;;;;;;12.06;73.39;101267.56;4991917;28;20042;-72
2022/11/01 08:25:26;;;;;;;12.27;1.80;;;;;;;12.07;73.71;101274.75;4990588;28;20037;-71
2022/11/01 08:27:51;;;;;;;13.68;1.65;;;;;;;12.10;73.38;101274.56;4991047;28;20133;-71
2022/11/01 08:30:18;;;;;;;12.38;1.73;;;;;;;12.11;73.28;101278.16;4990596;28;20505;-72
2022/11/01 08:32:44;;;;;;;14.18;2.08;;;;;;;12.11;73.13;101289.06;4999369;28;20045;-73
2022/11/01 08:35:12;;;;;;;9.82;1.98;;;;;;;12.13;73.10;101301.63;5000162;28;20050;-72
2022/11/01 08:37:47;;;;;;;16.08;2.20;;;;;;;12.15;74.30;101304.22;4991900;28;20038;-71
2022/11/01 08:40:12;;;;;;;11.70;1.73;;;;;;;12.17;74.20;101292.25;4991551;28;20042;-71
2022/11/01 08:42:38;;;;;;;7.78;1.67;;;;;;;12.20;73.74;101302.91;4991820;28;20044;-71
2022/11/01 08:45:05;;;;;;;11.02;2.08;;;;;;;12.28;72.74;101293.31;4991621;28;20121;-72
2022/11/01 08:47:30;;;;;;;7.45;1.70;;;;;;;12.32;73.17;101298.44;4991707;28;20486;-71
2022/11/01 08:49:55;;;;;;;11.35;2.47;;;;;;;12.36;73.59;101299.09;4997240;28;20188;-72
2022/11/01 08:52:21;;;;;;;12.77;2.40;;;;;;;12.40;73.12;101301.50;4990777;28;20415;-72
2022/11/01 08:54:46;;;;;;;10.57;1.70;;;;;;;12.47;72.68;101301.91;4991896;28;20157;-72
2022/11/01 08:57:11;;;;;;;9.45;1.85;;;;;;;12.52;72.43;101310.63;4992502;28;20050;-71
2022/11/01 08:59:37;;;;;;;15.38;2.15;;;;;;;12.58;72.79;101314.75;5010899;28;20091;-72
2022/11/01 09:02:02;;;;;;;6.55;1.98;;;;;;;12.62;72.54;101311.69;5005396;28;20042;-70
2022/11/01 09:04:27;;;;;;;15.70;1.98;;;;;;;12.66;71.42;101310.47;4996222;28;20026;-71
2022/11/01 09:06:53;;;;;;;9.07;2.08;;;;;;;12.72;71.00;101314.59;4993065;28;20113;-72
2022/11/01 09:09:18;;;;;;;11.13;2.10;;;;;;;12.79;71.98;101320.50;4989664;28;20518;-72
2022/11/01 09:11:43;;;;;;;15.13;2.25;;;;;;;12.83;71.48;101320.16;4991021;28;20049;-72
2022/11/01 09:14:09;;;;;;;10.38;1.60;;;;;;;12.83;72.11;101320.16;4989856;28;20355;-71
2022/11/01 09:16:34;;;;;;;6.38;1.55;;;;;;;12.87;71.83;101326.25;4990940;28;20386;-71
2022/11/01 09:19:00;;;;;;;4.40;1.40;;;;;;;12.94;71.10;101305.69;5006475;28;20026;-72
2022/11/01 09:21:29;;;;;;;14.23;1.52;;;;;;;12.97;71.32;101327.31;4994648;28;20045;-73
2022/11/01 09:23:55;;;;;;;11.85;1.50;;;;;;;13.07;70.60;101328.38;4989462;28;20106;-73
2022/11/01 09:26:21;;;;;;;14.35;2.20;;;;;;;13.15;71.39;101336.88;4991341;28;20034;-72
2022/11/01 09:28:46;;;;;;;17.05;2.08;;;;;;;13.21;70.08;101330.94;5009961;28;20549;-72
2022/11/01 09:31:12;;;;;;;14.23;2.03;;;;;;;13.26;70.39;101330.63;5001423;28;20035;-73
2022/11/01 09:33:38;;;;;;;11.23;3.30;;;;;;;13.34;69.90;101328.19;5005383;28;20037;-71
2022/11/01 09:36:04;;;;;;;16.08;2.20;;;;;;;13.39;70.05;101345.09;4992110;28;20047;-71
2022/11/01 09:38:29;;;;;;;8.25;1.85;;;;;;;13.46;70.06;101349.09;4990831;28;20042;-72
2022/11/01 09:41:22;;;;;;;11.10;2.20;;;;;;;13.51;69.78;101362.41;4990406;28;20402;-73
2022/11/01 09:43:49;;;;;;;10.73;1.70;;;;;;;13.54;70.04;101359.44;4990698;28;20053;-72
2022/11/01 09:46:17;;;;;;;9.98;1.77;;;;;;;13.52;68.99;101373.25;4990855;28;20413;-71
2022/11/01 09:48:44;;;;;;;8.13;2.08;;;;;;;13.56;69.38;101370.25;5006567;28;20030;-72
2022/11/01 09:51:19;;;;;;;12.20;2.67;;;;;;;13.58;69.31;101371.03;4995962;28;20343;-72
2022/11/01 09:53:46;;;;;;;15.77;2.30;;;;;;;13.64;69.39;101373.28;4990526;28;20186;-71
2022/11/01 09:56:25;;;;;;;9.45;2.25;;;;;;;13.70;70.07;101383.72;4990607;28;20464;-72
2022/11/01 09:59:01;;;;;;;11.77;1.75;;;;;;;13.73;70.01;101380.78;4990790;28;20070;-72
2022/11/01 10:01:48;;;;;;;7.88;1.77;;;;;;;13.75;68.29;101382.38;4990017;28;20394;-72
2022/11/01 10:04:21;;;;;;;15.95;2.30;;;;;;;13.78;69.36;101386.75;4989936;28;20057;-73
2022/11/01 10:07:04;;;;;;;16.02;2.88;;;;;;;13.79;69.79;101383.88;4990843;28;20034;-72
2022/11/01 10:09:57;;;;;;;8.43;1.80;;;;;;;13.89;69.77;101394.97;5008234;28;20476;-71
2022/11/01 10:12:42;;;;;;;10.60;2.03;;;;;;;13.91;69.06;101392.16;5010076;28;20191;-72
2022/11/01 10:15:19;;;;;;;12.43;1.73;;;;;;;13.97;68.73;101419.03;4993170;28;20038;-74
2022/11/01 10:17:53;;;;;;;10.80;2.22;;;;;;;13.99;67.81;101398.78;4988569;28;20038;-71
2022/11/01 10:20:27;;;;;;;12.60;1.90;;;;;;;14.03;67.86;101411.22;4996173;28;20053;-72
2022/11/01 10:22:53;;;;;;;11.60;1.90;;;;;;;14.06;67.92;101406.50;4988960;28;20050;-72
2022/11/01 10:25:28;;;;;;;13.25;2.47;;;;;;;14.09;68.50;101406.25;4990046;28;20026;-72
2022/11/01 10:28:17;;;;;;;19.27;2.10;;;;;;;14.12;68.39;101406.00;4990334;28;20335;-72
2022/11/01 10:30:47;;;;;;;14.48;2.28;;;;;;;14.20;68.88;101400.81;4988668;28;20070;-72
2022/11/01 10:33:21;;;;;;;9.85;2.08;;;;;;;14.29;68.79;101405.56;4989845;28;20038;-72
2022/11/01 10:35:53;;;;;;;10.23;1.90;;;;;;;14.44;67.96;101404.34;4989433;28;20054;-71
2022/11/01 10:38:40;;;;;;;7.63;2.00;;;;;;;14.59;67.93;101413.22;4989914;28;20074;-72
2022/11/01 10:41:28;;;;;;;12.75;2.08;;;;;;;14.68;67.81;101414.34;4995705;28;20539;-71
2022/11/01 10:43:57;;;;;;;7.60;1.67;;;;;;;14.72;66.78;101413.09;5009705;28;20128;-72
2022/11/01 10:46:27;;;;;;;13.05;1.95;;;;;;;14.76;66.70;101410.00;5009510;28;20080;-72
2022/11/01 10:48:58;;;;;;;13.40;2.15;;;;;;;14.85;66.69;101404.78;5001539;28;20109;-72
2022/11/01 10:51:27;;;;;;;7.68;1.88;;;;;;;14.93;67.47;101407.75;4995451;28;20188;-72
2022/11/01 10:53:58;;;;;;;8.07;1.67;;;;;;;15.03;66.33;101395.03;4993162;28;20129;-72
2022/11/01 10:56:28;;;;;;;7.03;1.42;;;;;;;15.14;66.36;101402.38;4993940;28;20038;-72
2022/11/01 10:59:05;;;;;;;8.48;1.60;;;;;;;15.28;65.71;101404.84;4993845;28;20046;-72
2022/11/01 11:01:37;;;;;;;13.38;2.13;;;;;;;15.37;64.71;101409.53;5010632;28;20034;-71
2022/11/01 11:04:06;;;;;;;10.15;1.80;;;;;;;15.48;64.67;101405.88;5010656;28;20116;-71
2022/11/01 11:06:33;;;;;;;8.75;2.10;;;;;;;15.54;65.31;101416.38;5002730;28;20034;-73
2022/11/01 11:09:00;;;;;;;8.90;2.17;;;;;;;15.59;64.16;101411.38;4993680;28;20034;-71
2022/11/01 11:11:42;;;;;;;6.95;1.85;;;;;;;15.70;64.34;101399.50;4993446;28;20439;-71
2022/11/01 11:14:10;;;;;;;9.17;1.77;;;;;;;15.72;63.44;101406.63;5000541;28;20048;-72
2022/11/01 11:16:44;;;;;;;15.18;3.80;;;;;;;15.78;64.23;101407.97;5012288;28;20125;-71
2022/11/01 11:19:10;;;;;;;10.70;1.75;;;;;;;15.79;63.16;101402.31;5009565;28;20452;-71
2022/11/01 11:21:35;;;;;;;10.18;1.75;;;;;;;15.78;62.98;101403.34;5007573;28;20038;-72
2022/11/01 11:24:02;;;;;;;13.38;1.83;;;;;;;15.85;63.59;101400.94;5012825;28;20026;-72
2022/11/01 11:26:35;;;;;;;14.60;1.83;;;;;;;15.95;64.05;101393.66;5011295;28;20042;-72
2022/11/01 11:29:00;;;;;;;10.20;1.73;;;;;;;16.07;63.67;101399.94;4993874;28;20030;-72
2022/11/01 11:31:32;;;;;;;6.78;1.70;;;;;;;16.14;63.48;101395.69;4993171;28;20042;-72
2022/11/01 11:34:27;;;;;;;11.38;2.17;;;;;;;16.18;63.71;101401.75;4992862;28;20038;-72